Time;durP1;ratioP1;P1;durP2;ratioP2;P2;SDS_P1;SDS_P2;PMS_P1;PMS_P2;Temp;Humidity;BMP_temperature;BMP_pressure;BME280_temperature;BME280_humidity;BME280_pressure;Samples;Min_cycle;Max_cycle;Signal;HPM_P1;HPM_P2
2023/05/11 00:00:44;;;;;;;0.70;0.70;;;7.60;1.00;8.10;93848.00;;;;7403515;19;20153;-78
2023/05/11 00:03:19;;;;;;;2.23;0.90;;;7.60;1.00;8.40;93809.00;;;;7401087;19;20183;-77
2023/05/11 00:05:53;;;;;;;2.50;0.70;;;7.60;1.00;8.50;93852.00;;;;7399033;19;20178;-75
2023/05/11 00:08:27;;;;;;;2.40;0.80;;;7.60;1.00;8.50;93836.00;;;;7404811;19;20125;-77
2023/05/11 00:10:54;;;;;;;1.70;0.80;;;7.60;32.60;8.30;93828.00;;;;7400074;19;20140;-77
2023/05/11 00:13:28;;;;;;;0.70;0.70;;;7.50;78.10;8.30;93821.00;;;;7404404;19;20144;-78
2023/05/11 00:15:55;;;;;;;3.70;1.00;;;7.60;99.90;8.10;93827.00;;;;7401616;19;20462;-77
2023/05/11 00:18:29;;;;;;;0.80;0.80;;;7.60;99.90;8.30;93837.00;;;;7404328;19;20133;-78
2023/05/11 00:21:03;;;;;;;0.70;0.70;;;7.60;54.10;8.40;93861.00;;;;7402591;19;20465;-77
2023/05/11 00:23:38;;;;;;;0.90;0.70;;;7.50;99.90;8.30;93858.00;;;;7402251;19;20148;-75
2023/05/11 00:26:05;;;;;;;1.90;0.80;;;7.50;99.90;8.20;93821.00;;;;7402078;19;20133;-78
2023/05/11 00:28:45;;;;;;;1.77;1.05;;;7.50;99.90;8.30;93833.00;;;;7402598;19;20174;-75
2023/05/11 00:31:19;;;;;;;3.38;1.15;;;7.50;99.90;8.30;93846.00;;;;7403412;19;20484;-77
2023/05/11 00:33:56;;;;;;;0.70;0.70;;;7.60;99.90;8.40;93821.00;;;;7401219;19;20145;-78
2023/05/11 00:36:23;;;;;;;1.58;0.70;;;7.50;99.90;8.30;93844.00;;;;7403302;19;20124;-75
2023/05/11 00:38:57;;;;;;;1.52;0.80;;;7.50;99.90;8.30;93845.00;;;;7402894;19;20141;-77
2023/05/11 00:41:31;;;;;;;2.20;0.95;;;7.50;99.90;8.20;93848.00;;;;7401220;19;20520;-75
2023/05/11 00:44:06;;;;;;;1.63;0.73;;;7.50;99.90;8.20;93848.00;;;;7402662;19;20129;-77
2023/05/11 00:46:33;;;;;;;0.90;0.80;;;7.40;99.90;8.10;93842.00;;;;7400822;19;20166;-74
2023/05/11 00:49:08;;;;;;;0.90;0.80;;;7.40;99.90;8.10;93842.00;;;;7402778;19;20132;-77
2023/05/11 00:51:35;;;;;;;0.93;0.75;;;7.40;1.00;8.10;93837.00;;;;7403202;19;20157;-77
2023/05/11 00:54:14;;;;;;;1.10;1.00;;;7.30;1.00;8.10;93843.00;;;;7401117;19;20155;-78
2023/05/11 00:56:41;;;;;;;2.95;1.15;;;7.40;1.00;8.00;93821.00;;;;7391619;19;20157;-75
2023/05/11 00:59:15;;;;;;;1.65;1.08;;;7.30;1.00;8.10;93834.00;;;;7398318;19;20125;-77
2023/05/11 01:01:50;;;;;;;0.80;0.80;;;7.40;1.00;8.30;93835.00;;;;7401643;19;20133;-75
2023/05/11 01:04:24;;;;;;;1.23;1.13;;;7.40;1.00;8.10;93839.00;;;;7401808;19;20137;-77
2023/05/11 01:07:14;;;;;;;1.15;1.00;;;7.40;1.00;8.30;93838.00;;;;7401276;19;20133;-77
2023/05/11 01:10:07;;;;;;;0.90;0.90;;;7.40;1.00;8.20;93843.00;;;;7401110;19;20137;-76
2023/05/11 01:12:55;;;;;;;0.88;0.88;;;7.50;1.00;8.20;93834.00;;;;7401861;19;20144;-76
2023/05/11 01:15:42;;;;;;;1.47;0.97;;;7.50;1.00;8.20;93841.00;;;;7402314;19;20148;-76
2023/05/11 01:18:30;;;;;;;4.60;1.20;;;7.50;1.00;8.30;93809.00;;;;7401070;19;20141;-76
2023/05/11 01:21:14;;;;;;;1.17;1.00;;;7.50;1.00;8.30;93838.00;;;;7398941;19;20136;-76
2023/05/11 01:24:16;;;;;;;2.10;1.20;;;7.50;1.00;8.20;93836.00;;;;7400449;19;20475;-76
2023/05/11 01:27:20;;;;;;;1.40;1.30;;;7.50;1.00;8.20;93837.00;;;;7400248;19;20596;-76
2023/05/11 01:30:51;;;;;;;1.50;1.10;;;7.50;1.00;8.20;93830.00;;;;7400027;19;20132;-76
2023/05/11 01:33:32;;;;;;;0.90;0.90;;;7.50;1.00;8.10;93820.00;;;;7400844;19;20149;-75
2023/05/11 01:36:08;;;;;;;2.33;1.10;;;7.40;1.00;8.20;93830.00;;;;7399616;19;20133;-75
2023/05/11 01:38:47;;;;;;;1.88;1.48;;;7.40;1.00;8.10;93825.00;;;;7397172;19;20120;-76
2023/05/11 01:41:18;;;;;;;1.85;1.35;;;7.40;1.00;8.20;93838.00;;;;7397800;19;20248;-75
2023/05/11 01:43:58;;;;;;;1.60;0.98;;;7.40;1.00;8.20;93832.00;;;;7400079;19;20592;-76
2023/05/11 01:46:27;;;;;;;5.28;1.33;;;7.40;1.00;8.20;93825.00;;;;7399535;19;20140;-75
2023/05/11 01:49:08;;;;;;;3.63;1.98;;;7.30;1.00;8.20;93842.00;;;;7400639;19;20136;-75
2023/05/11 01:51:44;;;;;;;2.15;1.52;;;7.30;59.00;8.20;93814.00;;;;7400366;19;20197;-75
2023/05/11 01:54:12;;;;;;;1.83;1.70;;;7.30;99.90;8.00;93835.00;;;;7399965;19;20235;-75
2023/05/11 01:56:42;;;;;;;8.60;1.70;;;7.40;99.90;8.00;93840.00;;;;7399127;19;20220;-75
2023/05/11 01:59:17;;;;;;;1.67;1.58;;;7.40;99.90;8.10;93834.00;;;;7400947;19;20148;-74
2023/05/11 02:01:51;;;;;;;4.75;1.70;;;7.40;37.50;8.10;93841.00;;;;7398738;19;20136;-76
2023/05/11 02:04:28;;;;;;;2.17;1.50;;;7.40;5.40;8.20;93836.00;;;;7400210;19;20133;-74
2023/05/11 02:07:09;;;;;;;2.53;1.60;;;7.40;1.00;8.10;93841.00;;;;7399720;19;20174;-77
2023/05/11 02:09:40;;;;;;;3.10;1.80;;;7.40;1.00;8.00;93829.00;;;;7398745;19;20170;-74
2023/05/11 02:12:18;;;;;;;1.93;1.43;;;7.40;1.00;8.10;93843.00;;;;7399846;19;20607;-74
2023/05/11 02:14:51;;;;;;;3.72;1.60;;;7.40;1.00;8.00;93803.00;;;;7400332;19;20124;-75
2023/05/11 02:17:26;;;;;;;1.30;1.20;;;7.50;1.00;8.00;93838.00;;;;7397731;19;20144;-75
2023/05/11 02:19:56;;;;;;;2.55;1.20;;;7.40;1.00;8.00;93837.00;;;;7400025;19;20456;-76
2023/05/11 02:22:39;;;;;;;2.50;1.40;;;7.40;1.00;8.10;93836.00;;;;7399743;19;20153;-76
2023/05/11 02:25:08;;;;;;;1.50;1.40;;;7.40;1.00;8.10;93843.00;;;;7398078;19;20145;-76
2023/05/11 02:27:43;;;;;;;2.20;1.20;;;7.30;1.00;8.00;93828.00;;;;7395648;19;20144;-76
2023/05/11 02:30:12;;;;;;;3.13;1.13;;;7.30;1.00;8.00;93837.00;;;;7397939;19;20613;-76
2023/05/11 02:32:56;;;;;;;1.85;1.45;;;7.30;1.00;8.00;93845.00;;;;7398960;19;20156;-76
2023/05/11 02:35:29;;;;;;;3.00;1.42;;;7.30;1.00;8.00;93842.00;;;;7399497;19;20196;-76
2023/05/11 02:38:03;;;;;;;0.73;0.73;;;7.30;1.00;7.90;93823.00;;;;7399961;19;20146;-72
2023/05/11 02:40:44;;;;;;;2.10;1.20;;;7.30;1.00;7.90;93826.00;;;;7399607;19;20148;-75
2023/05/11 02:43:29;;;;;;;4.45;1.08;;;7.30;8.90;7.90;93848.00;;;;7393395;19;20216;-76
2023/05/11 02:46:07;;;;;;;1.52;1.00;;;7.30;45.40;8.00;93831.00;;;;7399667;19;20256;-77
2023/05/11 02:48:51;;;;;;;1.92;1.00;;;7.30;99.90;8.00;93820.00;;;;7399370;19;20121;-77
2023/05/11 02:51:35;;;;;;;0.80;0.80;;;7.30;99.90;8.00;93817.00;;;;7398319;19;20143;-77
2023/05/11 02:54:06;;;;;;;1.23;1.10;;;7.30;99.90;8.10;93836.00;;;;7402141;19;20521;-75
2023/05/11 02:56:41;;;;;;;1.42;1.25;;;7.30;99.90;8.00;93841.00;;;;7406390;19;20132;-76
2023/05/11 02:59:11;;;;;;;2.35;1.17;;;7.30;99.90;8.00;93838.00;;;;7405602;19;20150;-74
2023/05/11 03:01:39;;;;;;;2.00;1.25;;;7.30;99.90;8.00;93831.00;;;;7403987;19;20144;-74
2023/05/11 03:04:15;;;;;;;1.38;1.27;;;7.30;99.90;8.00;93843.00;;;;7405816;19;20128;-75
2023/05/11 03:06:45;;;;;;;1.30;0.98;;;7.30;99.90;7.90;93791.00;;;;7404302;19;20609;-75
2023/05/11 03:09:19;;;;;;;1.40;1.30;;;7.30;99.90;7.90;93826.00;;;;7405528;19;20624;-76
2023/05/11 03:11:46;;;;;;;1.45;1.10;;;7.30;99.90;8.00;93832.00;;;;7402401;19;20589;-75
2023/05/11 03:14:21;;;;;;;5.30;0.88;;;7.30;99.90;7.90;93808.00;;;;7404222;19;20148;-74
2023/05/11 03:16:56;;;;;;;1.35;1.10;;;7.30;99.90;8.00;93835.00;;;;7406022;19;20136;-74
2023/05/11 03:19:31;;;;;;;2.92;1.20;;;7.30;99.90;7.90;93830.00;;;;7406123;19;20129;-76
2023/05/11 03:22:06;;;;;;;4.93;1.40;;;7.30;99.90;7.90;93839.00;;;;7402072;19;20481;-74
2023/05/11 03:24:41;;;;;;;1.40;1.30;;;7.30;99.90;7.90;93819.00;;;;7405175;19;20160;-75
2023/05/11 03:27:10;;;;;;;4.53;1.13;;;7.30;99.90;8.00;93828.00;;;;7405114;19;20133;-75
2023/05/11 03:29:47;;;;;;;1.75;1.30;;;7.30;99.90;8.00;93841.00;;;;7404004;19;20596;-74
2023/05/11 03:32:14;;;;;;;1.55;1.30;;;7.30;1.00;8.00;93800.00;;;;7405335;19;20133;-76
2023/05/11 03:34:48;;;;;;;1.38;1.27;;;7.30;1.00;8.10;93810.00;;;;7405443;19;20129;-76
2023/05/11 03:37:22;;;;;;;2.38;1.40;;;7.30;1.00;8.10;93815.00;;;;7403738;19;20160;-76
2023/05/11 03:39:59;;;;;;;8.38;1.65;;;7.40;1.00;8.10;93827.00;;;;7405503;19;20204;-76
2023/05/11 03:42:36;;;;;;;1.40;1.30;;;7.40;1.00;8.10;93839.00;;;;7404596;19;20481;-76
2023/05/11 03:45:17;;;;;;;2.05;1.38;;;7.40;1.00;8.20;93835.00;;;;7404904;19;20125;-76
2023/05/11 03:47:47;;;;;;;1.27;1.17;;;7.40;1.00;8.20;93833.00;;;;7403352;19;20116;-76
2023/05/11 03:50:21;;;;;;;1.80;1.40;;;7.50;1.00;8.20;93822.00;;;;7403830;19;20161;-76
2023/05/11 03:52:56;;;;;;;1.30;1.20;;;7.50;1.00;8.20;93821.00;;;;7404464;19;20132;-76
2023/05/11 03:55:31;;;;;;;3.10;1.45;;;7.50;1.00;8.30;93828.00;;;;7404827;19;20136;-76
2023/05/11 03:58:08;;;;;;;2.33;1.30;;;7.50;1.00;8.30;93820.00;;;;7403536;19;20144;-76
2023/05/11 04:00:43;;;;;;;2.45;1.40;;;7.60;1.00;8.30;93835.00;;;;7407183;19;20217;-76
2023/05/11 04:03:11;;;;;;;2.03;1.73;;;7.60;1.00;8.30;93826.00;;;;7401877;19;20648;-76
2023/05/11 04:05:45;;;;;;;1.80;1.60;;;7.60;1.00;8.30;93817.00;;;;7402910;19;20140;-76
2023/05/11 04:08:13;;;;;;;1.35;1.20;;;7.70;1.00;8.40;93810.00;;;;7403225;19;20468;-74
2023/05/11 04:10:47;;;;;;;3.67;1.60;;;7.70;1.00;8.50;93822.00;;;;7402501;19;20132;-75
2023/05/11 04:13:14;;;;;;;2.83;1.33;;;7.70;1.00;8.50;93821.00;;;;7397632;19;20123;-74
2023/05/11 04:15:48;;;;;;;3.28;1.27;;;7.60;99.90;8.40;93792.00;;;;7402538;19;20500;-77
2023/05/11 04:18:16;;;;;;;5.38;1.30;;;7.70;99.90;8.30;93775.00;;;;7404116;19;20165;-74
2023/05/11 04:20:57;;;;;;;2.00;1.42;;;7.70;99.90;8.30;93818.00;;;;7402399;19;20161;-74
2023/05/11 04:23:24;;;;;;;3.13;1.48;;;7.70;99.90;8.40;93824.00;;;;7402083;19;20146;-75
2023/05/11 04:25:58;;;;;;;2.95;1.42;;;7.70;99.90;8.40;93811.00;;;;7403447;19;20465;-76
2023/05/11 04:28:33;;;;;;;2.40;1.30;;;7.70;99.90;8.40;93819.00;;;;7403155;19;20135;-79
2023/05/11 04:31:07;;;;;;;2.45;1.67;;;7.70;99.90;8.40;93808.00;;;;7400466;19;20140;-79
2023/05/11 04:33:41;;;;;;;2.33;1.50;;;7.70;99.90;8.50;93822.00;;;;7402957;19;20137;-78
2023/05/11 04:36:15;;;;;;;4.13;1.50;;;7.80;99.90;8.50;93826.00;;;;7402802;19;20614;-77
2023/05/11 04:38:42;;;;;;;4.55;1.50;;;7.80;99.90;8.50;93820.00;;;;7402999;19;20156;-76
2023/05/11 04:41:19;;;;;;;1.40;1.20;;;7.80;99.90;8.50;93812.00;;;;7401941;19;20479;-78
2023/05/11 04:43:54;;;;;;;2.80;1.23;;;7.90;99.90;8.50;93823.00;;;;7401399;19;20186;-78
2023/05/11 04:46:28;;;;;;;1.73;1.20;;;7.90;99.90;8.60;93815.00;;;;7400945;19;20485;-77
2023/05/11 04:49:03;;;;;;;2.95;1.52;;;7.90;99.90;8.60;93830.00;;;;7403489;19;20124;-79
2023/05/11 04:51:38;;;;;;;1.88;1.48;;;7.90;99.90;8.60;93827.00;;;;7394979;19;20632;-78
2023/05/11 04:54:12;;;;;;;2.42;1.40;;;8.00;99.90;8.70;93780.00;;;;7403041;19;20604;-78
2023/05/11 04:56:46;;;;;;;1.33;1.17;;;8.00;98.50;8.70;93828.00;;;;7401308;19;20610;-78
2023/05/11 04:59:13;;;;;;;2.20;1.40;;;8.10;94.70;8.70;93838.00;;;;7398943;19;20129;-77
2023/05/11 05:01:47;;;;;;;4.13;1.63;;;8.10;1.00;8.70;93792.00;;;;7399335;19;20496;-79
2023/05/11 05:04:15;;;;;;;1.30;1.20;;;8.10;1.00;8.70;93782.00;;;;7401757;19;20125;-77
2023/05/11 05:06:49;;;;;;;1.50;1.10;;;8.10;1.00;8.80;93799.00;;;;7402946;19;20161;-76
2023/05/11 05:09:16;;;;;;;1.40;1.30;;;8.10;1.00;8.70;93831.00;;;;7400779;19;20144;-78
2023/05/11 05:11:50;;;;;;;2.33;1.60;;;8.10;1.00;8.70;93800.00;;;;7400007;19;20137;-76
2023/05/11 05:14:24;;;;;;;1.90;1.20;;;8.10;1.00;8.80;93829.00;;;;7402085;19;20139;-77
2023/05/11 05:17:00;;;;;;;1.67;1.40;;;8.10;1.00;8.80;93789.00;;;;7398850;19;20614;-79
2023/05/11 05:19:27;;;;;;;2.10;1.20;;;8.10;1.00;8.90;93825.00;;;;7401535;19;20149;-79
2023/05/11 05:22:14;;;;;;;2.08;1.50;;;8.10;1.00;8.80;93821.00;;;;7398181;19;20165;-78
2023/05/11 05:24:48;;;;;;;1.52;1.30;;;8.10;1.00;8.80;93799.00;;;;7402193;19;20135;-78
2023/05/11 05:27:22;;;;;;;1.52;1.30;;;8.20;99.90;8.90;93830.00;;;;7400629;19;20622;-79
2023/05/11 05:29:49;;;;;;;1.83;1.15;;;8.20;99.90;8.90;93827.00;;;;7401165;19;20153;-78
2023/05/11 05:32:23;;;;;;;2.72;1.30;;;8.30;99.90;9.00;93832.00;;;;7398840;19;20643;-78
2023/05/11 05:34:50;;;;;;;2.42;1.50;;;8.30;99.90;8.90;93823.00;;;;7401682;19;20129;-77
2023/05/11 05:37:18;;;;;;;1.77;1.27;;;8.40;99.90;9.10;93831.00;;;;7400421;19;20586;-78
2023/05/11 05:39:52;;;;;;;3.40;1.23;;;8.40;99.90;9.20;93831.00;;;;7400427;19;20147;-79
2023/05/11 05:42:21;;;;;;;2.45;1.63;;;8.30;1.00;9.10;93833.00;;;;7400614;19;20144;-77
2023/05/11 05:44:55;;;;;;;2.00;1.15;;;8.40;1.00;9.10;93816.00;;;;7400555;19;20132;-78
2023/05/11 05:47:29;;;;;;;4.60;1.60;;;8.40;1.00;8.80;93838.00;;;;7400261;19;20754;-76
2023/05/11 05:49:58;;;;;;;3.80;1.58;;;8.50;1.00;9.10;93838.00;;;;7401821;19;20156;-78
2023/05/11 05:52:32;;;;;;;1.63;1.50;;;8.50;99.90;9.00;93851.00;;;;7397861;19;20132;-78
2023/05/11 05:55:08;;;;;;;2.53;1.58;;;8.50;99.90;9.10;93832.00;;;;7401547;19;20481;-77
2023/05/11 05:57:42;;;;;;;2.75;1.70;;;8.40;99.90;9.30;93850.00;;;;7396498;19;20508;-76
2023/05/11 06:00:18;;;;;;;3.30;2.00;;;8.40;99.90;9.10;93848.00;;;;7398658;19;20141;-77
2023/05/11 06:02:52;;;;;;;6.70;2.47;;;8.40;99.90;9.10;93821.00;;;;7400106;19;20465;-78
2023/05/11 06:05:27;;;;;;;4.78;2.63;;;8.50;99.90;8.70;93842.00;;;;7401826;19;20120;-76
2023/05/11 06:08:01;;;;;;;4.32;2.47;;;8.50;99.90;8.80;93850.00;;;;7401173;19;20494;-78
2023/05/11 06:10:34;;;;;;;2.88;2.08;;;8.40;99.90;8.90;93846.00;;;;7401886;19;20137;-75
2023/05/11 06:13:08;;;;;;;2.95;2.63;;;8.40;99.90;8.80;93824.00;;;;7401478;19;20129;-77
2023/05/11 06:15:42;;;;;;;3.83;2.95;;;8.40;99.90;9.00;93843.00;;;;7399814;19;20587;-78
2023/05/11 06:18:17;;;;;;;4.82;2.85;;;8.40;99.90;9.00;93827.00;;;;7399384;19;20168;-78
2023/05/11 06:20:53;;;;;;;4.15;3.28;;;8.40;99.90;9.20;93845.00;;;;7400868;19;20136;-77
2023/05/11 06:23:35;;;;;;;3.03;2.83;;;8.30;99.90;9.20;93843.00;;;;7399851;19;20136;-75
2023/05/11 06:26:03;;;;;;;4.30;3.08;;;8.30;99.90;9.00;93838.00;;;;7400761;19;20133;-77
2023/05/11 06:28:37;;;;;;;3.92;3.00;;;8.30;99.90;8.90;93838.00;;;;7400365;19;20211;-77
2023/05/11 06:31:04;;;;;;;6.93;3.20;;;8.30;99.90;9.10;93840.00;;;;7399559;19;20129;-77
2023/05/11 06:33:40;;;;;;;4.07;3.00;;;8.40;99.90;9.30;93837.00;;;;7399120;19;20592;-77
2023/05/11 06:36:14;;;;;;;6.20;2.65;;;8.50;99.90;9.60;93799.00;;;;7399557;19;20584;-77
2023/05/11 06:38:41;;;;;;;5.30;2.40;;;8.50;99.90;9.80;93831.00;;;;7397747;19;20148;-77
2023/05/11 06:41:16;;;;;;;2.30;2.08;;;8.50;99.90;9.90;93829.00;;;;7398381;19;20162;-78
2023/05/11 06:43:43;;;;;;;3.28;2.40;;;8.70;64.90;9.80;93813.00;;;;7398759;19;20141;-77
2023/05/11 06:46:17;;;;;;;2.35;2.10;;;8.60;1.00;10.00;93821.00;;;;7399076;19;20612;-77
2023/05/11 06:48:44;;;;;;;2.60;2.10;;;8.80;1.00;9.90;93831.00;;;;7397597;19;20141;-76
2023/05/11 06:51:20;;;;;;;3.17;1.92;;;8.90;99.90;10.10;93831.00;;;;7394535;19;20156;-76
2023/05/11 06:53:47;;;;;;;2.22;2.03;;;8.90;99.90;10.00;93827.00;;;;7399055;19;20624;-77
2023/05/11 06:56:21;;;;;;;3.13;2.10;;;9.00;99.90;10.10;93803.00;;;;7396871;19;20627;-78
2023/05/11 06:58:55;;;;;;;2.97;1.95;;;9.00;99.90;10.30;93791.00;;;;7398847;19;20161;-80
2023/05/11 07:01:29;;;;;;;2.65;2.10;;;9.00;99.90;10.10;93805.00;;;;7397975;19;20152;-77
2023/05/11 07:04:05;;;;;;;3.17;1.77;;;9.00;1.00;10.20;93823.00;;;;7397240;19;20133;-77
2023/05/11 07:06:35;;;;;;;2.92;2.17;;;9.00;1.00;10.50;93815.00;;;;7398025;19;20136;-77
2023/05/11 07:09:02;;;;;;;2.55;1.83;;;9.30;1.00;10.50;93832.00;;;;7398632;19;20204;-77
2023/05/11 07:11:37;;;;;;;3.38;1.70;;;9.40;1.00;10.40;93783.00;;;;7396334;19;20161;-77
2023/05/11 07:14:04;;;;;;;3.20;1.77;;;9.40;99.90;10.60;93839.00;;;;7397746;19;20209;-77
2023/05/11 07:16:38;;;;;;;2.08;1.75;;;9.30;1.00;10.30;93803.00;;;;7398218;19;20140;-76
2023/05/11 07:19:13;;;;;;;3.70;1.90;;;9.50;1.00;10.60;93818.00;;;;7396145;19;20160;-78
2023/05/11 07:22:00;;;;;;;1.70;1.60;;;9.60;99.90;10.70;93822.00;;;;7396547;19;20466;-77
2023/05/11 07:24:34;;;;;;;4.43;2.00;;;9.60;99.90;10.60;93815.00;;;;7397754;19;20141;-78
2023/05/11 07:27:08;;;;;;;2.28;1.60;;;9.50;99.90;10.70;93832.00;;;;7396966;19;20133;-78
2023/05/11 07:29:35;;;;;;;1.65;1.55;;;9.70;99.90;10.90;93835.00;;;;7397273;19;20125;-78
2023/05/11 07:32:09;;;;;;;2.00;1.70;;;9.60;99.90;10.50;93838.00;;;;7396198;19;20133;-75
2023/05/11 07:34:40;;;;;;;2.63;1.65;;;9.70;99.90;10.80;93815.00;;;;7397438;19;20141;-76
2023/05/11 07:37:14;;;;;;;3.08;1.58;;;9.80;99.90;10.90;93842.00;;;;7395873;19;20136;-76
2023/05/11 07:39:48;;;;;;;1.58;1.48;;;9.80;99.90;10.60;93833.00;;;;7400649;19;20511;-76
2023/05/11 07:42:22;;;;;;;3.58;1.80;;;10.00;99.90;11.00;93787.00;;;;7403545;19;20139;-76
2023/05/11 07:44:59;;;;;;;4.40;1.50;;;10.20;85.70;10.60;93835.00;;;;7404694;19;20939;-76
2023/05/11 07:47:33;;;;;;;1.40;1.30;;;10.30;1.00;10.70;93842.00;;;;7402306;19;20148;-78
2023/05/11 07:50:07;;;;;;;2.17;1.40;;;10.50;1.00;10.80;93812.00;;;;7403646;19;20133;-76
2023/05/11 07:52:35;;;;;;;1.42;1.30;;;10.60;1.00;10.90;93842.00;;;;7398076;19;20141;-76
2023/05/11 07:55:11;;;;;;;1.50;1.25;;;10.80;1.00;11.40;93848.00;;;;7404145;19;20184;-78
2023/05/11 07:57:47;;;;;;;1.15;1.10;;;10.70;99.90;11.60;93828.00;;;;7399529;19;20151;-77
2023/05/11 08:00:21;;;;;;;1.63;1.40;;;10.80;99.90;11.40;93808.00;;;;7400960;19;20173;-78
2023/05/11 08:02:55;;;;;;;1.45;1.35;;;10.70;1.00;11.60;93825.00;;;;7399876;19;20906;-78
2023/05/11 08:05:23;;;;;;;2.25;1.48;;;10.80;1.00;11.40;93839.00;;;;7400256;19;20193;-77
2023/05/11 08:07:57;;;;;;;1.52;1.42;;;10.90;99.90;11.70;93831.00;;;;7402670;19;20132;-76
2023/05/11 08:10:31;;;;;;;1.90;1.20;;;10.80;99.90;11.40;93824.00;;;;7400767;19;20163;-76
2023/05/11 08:13:06;;;;;;;1.45;1.30;;;11.00;99.90;11.50;93840.00;;;;7399212;19;20137;-79
2023/05/11 08:15:40;;;;;;;1.58;1.48;;;11.00;99.90;11.80;93852.00;;;;7400676;19;20620;-79
2023/05/11 08:18:07;;;;;;;1.38;1.10;;;11.20;99.90;12.00;93795.00;;;;7401582;19;20145;-77
2023/05/11 08:20:41;;;;;;;1.50;1.13;;;11.40;99.90;12.10;93847.00;;;;7401896;19;20121;-77
2023/05/11 08:23:22;;;;;;;1.60;1.30;;;11.50;99.90;12.10;93846.00;;;;7401918;19;20125;-75
2023/05/11 08:25:57;;;;;;;1.75;1.17;;;11.60;99.90;12.20;93856.00;;;;7399776;19;20140;-78
2023/05/11 08:28:31;;;;;;;1.75;1.17;;;11.70;99.90;12.00;93857.00;;;;7401211;19;20595;-77
2023/05/11 08:31:06;;;;;;;2.17;1.30;;;11.80;99.90;12.40;93843.00;;;;7400993;19;20164;-78
2023/05/11 08:33:40;;;;;;;2.75;1.13;;;12.00;99.90;12.80;93851.00;;;;7401671;19;20599;-76
2023/05/11 08:36:17;;;;;;;1.30;1.05;;;12.10;99.90;12.50;93852.00;;;;7401569;19;20596;-78
2023/05/11 08:38:51;;;;;;;1.20;1.10;;;12.30;99.90;12.40;93845.00;;;;7401359;19;20137;-77
2023/05/11 08:41:24;;;;;;;1.35;0.80;;;12.30;81.30;12.30;93841.00;;;;7399640;19;20166;-78
2023/05/11 08:43:59;;;;;;;1.70;1.27;;;11.90;99.90;12.50;93858.00;;;;7400439;19;20129;-77
2023/05/11 08:46:38;;;;;;;1.27;1.17;;;11.90;99.90;12.70;93855.00;;;;7400098;19;20155;-78
2023/05/11 08:49:13;;;;;;;6.88;1.10;;;11.90;99.90;12.40;93845.00;;;;7400562;19;20942;-78
2023/05/11 08:51:41;;;;;;;1.95;0.95;;;12.00;99.90;12.10;93850.00;;;;7400001;19;20127;-77
2023/05/11 08:54:15;;;;;;;1.23;1.10;;;12.00;85.90;12.00;93836.00;;;;7396931;19;20591;-77
2023/05/11 08:56:46;;;;;;;1.00;0.90;;;12.00;53.40;12.40;93821.00;;;;7398631;19;20137;-77
2023/05/11 08:59:22;;;;;;;1.63;0.93;;;11.90;98.40;12.80;93797.00;;;;7400537;19;20630;-77
2023/05/11 09:01:58;;;;;;;1.25;1.15;;;12.10;99.90;12.10;93824.00;;;;7393672;19;20236;-77
2023/05/11 09:04:35;;;;;;;1.00;0.80;;;12.10;86.90;12.40;93823.00;;;;7399098;19;20157;-77
2023/05/11 09:07:14;;;;;;;2.50;0.82;;;12.00;99.70;11.80;93858.00;;;;7399317;19;20180;-77
2023/05/11 09:09:49;;;;;;;3.13;0.80;;;11.90;86.10;12.10;93856.00;;;;7399937;19;20478;-76
2023/05/11 09:12:27;;;;;;;3.03;0.70;;;12.00;81.30;11.80;93857.00;;;;7397880;19;20608;-78
2023/05/11 09:15:01;;;;;;;1.20;0.82;;;11.90;82.90;11.50;93840.00;;;;7400067;19;20136;-77
2023/05/11 09:17:35;;;;;;;2.72;1.02;;;11.70;99.90;11.60;93827.00;;;;7400453;19;20477;-76
2023/05/11 09:20:08;;;;;;;5.88;1.67;;;11.50;99.90;11.50;93858.00;;;;7400693;19;20462;-77
2023/05/11 09:22:52;;;;;;;1.50;1.00;;;11.50;99.90;11.40;93862.00;;;;7397596;19;20149;-77
2023/05/11 09:25:31;;;;;;;1.02;0.93;;;11.30;99.90;11.60;93856.00;;;;7399571;19;20143;-76
2023/05/11 09:28:10;;;;;;;2.25;1.10;;;11.20;99.90;12.30;93837.00;;;;7399146;19;20129;-77
2023/05/11 09:30:52;;;;;;;1.48;1.20;;;11.30;99.90;11.80;93856.00;;;;7399904;19;20171;-77
2023/05/11 09:33:24;;;;;;;1.25;1.15;;;11.50;99.90;11.90;93860.00;;;;7398686;19;20133;-77
2023/05/11 09:35:58;;;;;;;1.23;1.13;;;11.60;99.90;12.10;93854.00;;;;7399557;19;20603;-78
2023/05/11 09:38:25;;;;;;;3.88;1.00;;;11.60;99.90;11.20;93839.00;;;;7399766;19;20139;-80
2023/05/11 09:41:01;;;;;;;2.65;1.30;;;11.70;99.90;11.90;93822.00;;;;7397914;19;20611;-77
2023/05/11 09:43:30;;;;;;;3.35;1.17;;;11.60;99.90;11.60;93844.00;;;;7397988;19;20139;-76
2023/05/11 09:46:06;;;;;;;2.75;1.20;;;11.60;99.90;12.10;93836.00;;;;7397675;19;20181;-76
2023/05/11 09:48:34;;;;;;;2.45;1.27;;;11.50;99.90;12.60;93811.00;;;;7397650;19;20177;-77
2023/05/11 09:51:09;;;;;;;6.47;1.42;;;11.40;99.90;12.70;93842.00;;;;7398615;19;20160;-78
2023/05/11 09:53:44;;;;;;;2.63;1.17;;;11.60;99.90;12.50;93847.00;;;;7395958;19;20216;-80
2023/05/11 09:56:18;;;;;;;2.28;1.00;;;11.90;99.90;12.70;93822.00;;;;7397957;19;20671;-78
2023/05/11 09:58:54;;;;;;;1.98;1.20;;;12.10;99.90;13.30;93837.00;;;;7398482;19;20143;-78
2023/05/11 10:01:33;;;;;;;1.60;1.17;;;12.20;99.90;13.60;93833.00;;;;7388790;19;20598;-78
2023/05/11 10:04:02;;;;;;;2.38;1.33;;;12.20;99.90;13.20;93807.00;;;;7389681;19;20153;-79
2023/05/11 10:06:54;;;;;;;1.55;1.17;;;12.30;99.90;13.30;93819.00;;;;7393503;19;20117;-80
2023/05/11 10:09:26;;;;;;;3.22;1.38;;;12.60;99.80;13.80;93834.00;;;;7391633;19;20147;-81
2023/05/11 10:12:02;;;;;;;1.85;1.20;;;12.90;99.90;14.10;93790.00;;;;7391185;19;20595;-79
2023/05/11 10:14:31;;;;;;;1.63;1.15;;;13.10;99.90;14.40;93842.00;;;;7393716;19;20125;-80
2023/05/11 10:17:05;;;;;;;2.90;1.20;;;13.40;68.80;13.50;93848.00;;;;7391628;19;20156;-79
2023/05/11 10:19:33;;;;;;;1.20;0.82;;;13.40;73.30;12.50;93808.00;;;;7393222;19;20149;-79
2023/05/11 10:22:01;;;;;;;3.63;1.33;;;13.30;1.00;12.80;93857.00;;;;7391496;19;20483;-79
2023/05/11 10:24:35;;;;;;;1.25;0.98;;;13.10;1.00;13.40;93845.00;;;;7391560;19;20615;-79
2023/05/11 10:27:03;;;;;;;1.10;1.00;;;13.20;1.00;13.80;93818.00;;;;7390969;19;20596;-78
2023/05/11 10:29:41;;;;;;;2.08;1.17;;;13.20;45.70;14.00;93805.00;;;;7390920;19;20132;-78
2023/05/11 10:32:10;;;;;;;1.40;1.30;;;13.50;1.50;13.90;93830.00;;;;7392125;19;20117;-78
2023/05/11 10:34:45;;;;;;;1.88;1.15;;;13.50;1.00;14.60;93807.00;;;;7392939;19;20504;-80
2023/05/11 10:37:15;;;;;;;2.50;1.27;;;13.60;1.00;14.50;93813.00;;;;7392382;19;20189;-80
2023/05/11 10:39:49;;;;;;;2.28;1.20;;;13.60;1.00;14.40;93829.00;;;;7391587;19;20124;-80
2023/05/11 10:42:57;;;;;;;3.42;1.42;;;13.70;1.00;14.00;93821.00;;;;7391040;19;20148;-81
2023/05/11 10:45:51;;;;;;;1.67;1.30;;;13.80;1.00;14.80;93822.00;;;;7391763;19;20526;-80
2023/05/11 10:49:12;;;;;;;2.85;1.30;;;13.70;1.00;14.60;93825.00;;;;7384059;19;20136;-79
2023/05/11 10:52:40;;;;;;;1.45;1.10;;;14.00;1.00;14.20;93821.00;;;;7387938;19;20604;-80
2023/05/11 10:55:47;;;;;;;1.38;1.10;;;14.40;1.00;14.50;93817.00;;;;7391312;19;20523;-78
2023/05/11 10:59:07;;;;;;;1.63;1.20;;;14.40;1.00;14.70;93824.00;;;;7392311;19;20151;-80
2023/05/11 11:01:45;;;;;;;3.20;1.40;;;14.30;1.00;14.80;93815.00;;;;7388508;19;20162;-75
2023/05/11 11:04:13;;;;;;;2.60;1.65;;;14.20;1.00;14.70;93793.00;;;;7390027;19;20610;-77
2023/05/11 11:07:03;;;;;;;1.40;1.30;;;14.20;1.00;14.80;93824.00;;;;7389267;19;20148;-78
2023/05/11 11:10:04;;;;;;;2.10;1.30;;;14.10;1.00;14.90;93828.00;;;;7389485;19;20471;-77
2023/05/11 11:12:37;;;;;;;1.63;1.30;;;14.00;1.00;14.70;93822.00;;;;7387945;19;20149;-78
2023/05/11 11:15:06;;;;;;;2.67;1.13;;;14.00;1.00;14.70;93820.00;;;;7392365;19;20145;-78
2023/05/11 11:17:40;;;;;;;1.75;0.90;;;14.10;1.00;13.50;93789.00;;;;7398361;19;20137;-77
2023/05/11 11:20:08;;;;;;;2.05;1.20;;;14.20;1.00;14.10;93821.00;;;;7398778;19;20159;-76
2023/05/11 11:22:48;;;;;;;2.90;1.40;;;14.10;1.00;13.40;93819.00;;;;7392242;19;20156;-78
2023/05/11 11:25:53;;;;;;;3.83;1.27;;;13.90;1.00;14.20;93798.00;;;;7396127;19;20655;-77
2023/05/11 11:28:27;;;;;;;2.35;1.40;;;13.80;1.00;14.70;93819.00;;;;7394103;19;20611;-78
2023/05/11 11:31:26;;;;;;;2.40;1.25;;;13.50;1.00;14.50;93817.00;;;;7397830;19;20601;-78
2023/05/11 11:34:26;;;;;;;4.15;1.70;;;13.40;1.00;14.70;93812.00;;;;7392995;19;20157;-79
2023/05/11 11:37:02;;;;;;;2.67;1.50;;;13.30;1.00;13.80;93790.00;;;;7394164;19;20177;-80
2023/05/11 11:39:42;;;;;;;1.63;1.40;;;13.60;1.00;14.30;93824.00;;;;7395382;19;20137;-79
2023/05/11 11:42:38;;;;;;;5.10;1.73;;;13.40;1.00;14.60;93808.00;;;;7395809;19;20999;-80
2023/05/11 11:45:31;;;;;;;6.10;1.35;;;13.50;1.00;14.80;93807.00;;;;7395225;19;20157;-80